Time;durP1;ratioP1;P1;durP2;ratioP2;P2;SDS_P1;SDS_P2;PMS_P1;PMS_P2;Temp;Humidity;BMP_temperature;BMP_pressure;BME280_temperature;BME280_humidity;BME280_pressure;Samples;Min_cycle;Max_cycle;Signal;HPM_P1;HPM_P2
2024/01/06 00:02:20;;;;;;;4.50;4.07;;;2.40;99.90;;;;;;5060720;28;20698;-63
2024/01/06 00:04:47;;;;;;;4.07;3.65;;;2.40;99.90;;;;;;5060639;28;20210;-62
2024/01/06 00:07:14;;;;;;;4.82;4.43;;;2.40;99.90;;;;;;5058601;28;20586;-63
2024/01/06 00:09:41;;;;;;;6.07;4.53;;;2.40;99.90;;;;;;5066475;28;20365;-63
2024/01/06 00:12:08;;;;;;;5.97;5.47;;;2.40;99.90;;;;;;5061895;28;20213;-63
2024/01/06 00:14:35;;;;;;;6.68;6.07;;;2.40;99.90;;;;;;5050244;28;20233;-63
2024/01/06 00:17:03;;;;;;;6.00;4.90;;;2.40;99.90;;;;;;5053855;28;20205;-63
2024/01/06 00:19:30;;;;;;;5.75;5.25;;;2.40;99.90;;;;;;5062577;28;20213;-63
2024/01/06 00:21:56;;;;;;;6.63;6.00;;;2.30;99.90;;;;;;5064929;28;20206;-63
2024/01/06 00:24:23;;;;;;;5.45;5.05;;;2.30;99.90;;;;;;5050276;28;20202;-63
2024/01/06 00:26:50;;;;;;;5.97;4.75;;;2.30;99.90;;;;;;5058346;28;20234;-63
2024/01/06 00:29:17;;;;;;;6.45;4.97;;;2.30;99.90;;;;;;5050668;28;20210;-63
2024/01/06 00:31:44;;;;;;;4.97;4.40;;;2.30;99.90;;;;;;5051266;28;20665;-63
2024/01/06 00:34:12;;;;;;;4.93;4.53;;;2.20;99.90;;;;;;5050438;28;20225;-63
2024/01/06 00:36:39;;;;;;;8.30;7.60;;;2.20;99.90;;;;;;5045118;28;20198;-63
2024/01/06 00:39:06;;;;;;;8.50;7.80;;;2.20;99.90;;;;;;5050091;28;20226;-63
2024/01/06 00:41:32;;;;;;;8.95;7.75;;;2.20;99.90;;;;;;5050751;28;20233;-63
2024/01/06 00:43:59;;;;;;;8.30;7.50;;;2.10;99.90;;;;;;5050633;28;20202;-63
2024/01/06 00:46:26;;;;;;;9.23;6.88;;;2.10;99.90;;;;;;5050485;28;20669;-63
2024/01/06 00:48:53;;;;;;;6.78;6.18;;;2.10;99.90;;;;;;5050435;28;20226;-63
2024/01/06 00:51:21;;;;;;;7.90;7.30;;;2.10;99.90;;;;;;5051741;28;20293;-63
2024/01/06 00:53:48;;;;;;;7.07;6.30;;;2.10;99.90;;;;;;5054735;28;20234;-63
2024/01/06 00:56:15;;;;;;;7.05;6.45;;;2.10;99.90;;;;;;5054721;28;20301;-63
2024/01/06 00:58:42;;;;;;;5.88;5.35;;;2.10;99.90;;;;;;5091213;22;20669;-61
2024/01/06 01:01:09;;;;;;;6.93;5.90;;;2.10;99.90;;;;;;5077529;28;20213;-61
2024/01/06 01:03:35;;;;;;;6.07;5.57;;;2.00;99.90;;;;;;5076949;28;20233;-61
2024/01/06 01:06:02;;;;;;;5.97;4.65;;;2.00;99.90;;;;;;5076973;28;20206;-61
2024/01/06 01:08:31;;;;;;;24.67;6.07;;;2.00;99.90;;;;;;5076722;28;20336;-61
2024/01/06 01:10:58;;;;;;;4.72;4.43;;;2.00;99.90;;;;;;5076799;28;20220;-61
2024/01/06 01:13:25;;;;;;;5.13;4.82;;;1.90;99.90;;;;;;5078374;28;20308;-61
2024/01/06 01:15:52;;;;;;;10.13;5.18;;;1.90;99.90;;;;;;5076737;28;20248;-61
2024/01/06 01:18:19;;;;;;;4.70;4.30;;;1.90;99.90;;;;;;5076680;28;20670;-61
2024/01/06 01:20:46;;;;;;;4.95;4.55;;;1.90;99.90;;;;;;5076304;28;20292;-62
2024/01/06 01:23:13;;;;;;;5.25;4.85;;;1.90;99.90;;;;;;5079283;28;20220;-61
2024/01/06 01:25:41;;;;;;;5.25;4.85;;;1.90;99.90;;;;;;5068784;28;20206;-62
2024/01/06 01:28:08;;;;;;;6.85;3.67;;;1.90;99.90;;;;;;5074403;28;20236;-62
2024/01/06 01:30:34;;;;;;;13.45;4.45;;;1.90;99.90;;;;;;5075950;28;20214;-62
2024/01/06 01:33:02;;;;;;;4.80;4.40;;;1.90;99.90;;;;;;5077163;28;20312;-61
2024/01/06 01:35:29;;;;;;;4.80;4.30;;;1.90;99.90;;;;;;5077985;28;20205;-61
2024/01/06 01:37:55;;;;;;;5.20;4.22;;;1.90;99.90;;;;;;5076308;28;20707;-61
2024/01/06 01:40:22;;;;;;;4.30;3.90;;;1.90;99.90;;;;;;5075919;28;20202;-61
2024/01/06 01:42:50;;;;;;;5.38;4.88;;;1.90;99.90;;;;;;5076271;28;20206;-61
2024/01/06 01:45:18;;;;;;;4.60;4.25;;;1.90;99.90;;;;;;5078367;28;20205;-62
2024/01/06 01:47:45;;;;;;;5.28;3.70;;;1.80;99.90;;;;;;5076288;28;20232;-60
2024/01/06 01:50:13;;;;;;;4.05;3.80;;;1.80;99.90;;;;;;5076179;28;20202;-61
2024/01/06 01:52:42;;;;;;;4.82;3.55;;;1.80;99.90;;;;;;5076142;28;20593;-61
2024/01/06 01:55:09;;;;;;;5.38;3.53;;;1.80;99.90;;;;;;5077656;28;20690;-61
2024/01/06 01:57:36;;;;;;;2.95;2.53;;;1.80;99.90;;;;;;5076124;28;20236;-61
2024/01/06 02:00:08;;;;;;;4.63;4.05;;;1.80;99.90;;;;;;5075977;28;20202;-61
2024/01/06 02:02:35;;;;;;;8.77;3.78;;;1.70;99.90;;;;;;5075498;28;20250;-62
2024/01/06 02:05:02;;;;;;;5.10;4.70;;;1.70;99.90;;;;;;5076615;28;20212;-61
2024/01/06 02:07:28;;;;;;;4.05;3.75;;;1.80;99.90;;;;;;5077098;28;20221;-61
2024/01/06 02:09:55;;;;;;;4.80;3.80;;;1.70;99.90;;;;;;5075342;28;20297;-61
2024/01/06 02:12:22;;;;;;;7.03;3.40;;;1.70;99.90;;;;;;5075519;28;20214;-61
2024/01/06 02:14:49;;;;;;;3.83;3.17;;;1.70;99.90;;;;;;5075522;28;20261;-61
2024/01/06 02:17:17;;;;;;;3.60;3.30;;;1.70;99.90;;;;;;5078052;28;20241;-62
2024/01/06 02:19:44;;;;;;;3.15;2.90;;;1.70;99.90;;;;;;5075483;28;20216;-61
2024/01/06 02:22:12;;;;;;;5.35;3.97;;;1.60;99.90;;;;;;5075650;28;20232;-62
2024/01/06 02:24:39;;;;;;;4.10;3.75;;;1.70;99.90;;;;;;5069243;28;20198;-61
2024/01/06 02:27:06;;;;;;;5.95;3.72;;;1.60;99.90;;;;;;5073655;28;20201;-61
2024/01/06 02:29:33;;;;;;;2.35;2.25;;;1.60;99.90;;;;;;5077787;28;20672;-61
2024/01/06 02:32:00;;;;;;;3.10;2.75;;;1.60;99.90;;;;;;5073287;28;20205;-61
2024/01/06 02:34:26;;;;;;;4.32;3.92;;;1.60;99.90;;;;;;5072913;28;20224;-61
2024/01/06 02:36:53;;;;;;;4.25;3.00;;;1.60;99.90;;;;;;5073304;28;20212;-61
2024/01/06 02:39:23;;;;;;;3.20;3.00;;;1.60;99.90;;;;;;5072998;28;20232;-61
2024/01/06 02:41:50;;;;;;;4.72;3.70;;;1.60;99.90;;;;;;5073256;28;20214;-60
2024/01/06 02:44:17;;;;;;;3.83;3.42;;;1.60;99.90;;;;;;5072043;28;20233;-61
2024/01/06 02:46:44;;;;;;;5.03;3.65;;;1.50;99.90;;;;;;5071969;28;20292;-60
2024/01/06 02:49:10;;;;;;;5.85;4.07;;;1.50;99.90;;;;;;5072842;28;20602;-61
2024/01/06 02:51:37;;;;;;;4.72;4.32;;;1.60;99.90;;;;;;5073196;28;20222;-62
2024/01/06 02:54:04;;;;;;;3.60;3.30;;;1.60;99.90;;;;;;5072929;28;20596;-61
2024/01/06 02:56:32;;;;;;;4.70;3.58;;;1.60;99.90;;;;;;5073216;28;20210;-61
2024/01/06 02:58:59;;;;;;;3.90;3.60;;;1.60;99.90;;;;;;5072603;28;20234;-62
2024/01/06 03:01:26;;;;;;;4.00;3.63;;;1.60;99.90;;;;;;5073095;28;20206;-61
2024/01/06 03:03:53;;;;;;;6.50;5.40;;;1.60;99.90;;;;;;5072922;28;20212;-61
2024/01/06 03:06:20;;;;;;;7.40;4.75;;;1.60;99.90;;;;;;5072604;28;20210;-61
2024/01/06 03:08:46;;;;;;;3.60;3.30;;;1.60;99.90;;;;;;5072284;28;20716;-60
2024/01/06 03:11:14;;;;;;;4.97;3.08;;;1.60;99.90;;;;;;5072627;28;20206;-62
2024/01/06 03:13:42;;;;;;;4.78;3.53;;;1.60;99.90;;;;;;5071784;28;20233;-61
2024/01/06 03:16:09;;;;;;;4.63;4.22;;;1.60;99.90;;;;;;5072673;28;20201;-61
2024/01/06 03:18:36;;;;;;;6.35;5.13;;;1.60;99.90;;;;;;5072131;28;20226;-61
2024/01/06 03:21:03;;;;;;;4.22;3.72;;;1.70;99.90;;;;;;5072229;28;20201;-61
2024/01/06 03:23:30;;;;;;;3.50;3.30;;;1.70;99.90;;;;;;5072626;28;20202;-62
2024/01/06 03:25:56;;;;;;;5.20;4.70;;;1.70;99.90;;;;;;5072343;28;20297;-60
2024/01/06 03:28:23;;;;;;;4.40;4.00;;;1.70;99.90;;;;;;5072136;28;20784;-60
2024/01/06 03:30:51;;;;;;;6.00;5.40;;;1.70;99.90;;;;;;5072221;28;20216;-60
2024/01/06 03:33:18;;;;;;;6.57;4.63;;;1.70;99.90;;;;;;5072361;28;20629;-61
2024/01/06 03:35:45;;;;;;;7.03;5.10;;;1.80;99.90;;;;;;5071076;28;20202;-61
2024/01/06 03:38:12;;;;;;;5.03;4.55;;;1.80;99.90;;;;;;5070957;28;20229;-61
2024/01/06 03:40:39;;;;;;;5.35;4.85;;;1.80;99.90;;;;;;5071990;28;20355;-61
2024/01/06 03:43:06;;;;;;;4.82;4.43;;;1.80;99.90;;;;;;5072435;28;20252;-61
2024/01/06 03:45:32;;;;;;;3.47;3.13;;;1.80;99.90;;;;;;5072488;28;20206;-61
2024/01/06 03:48:00;;;;;;;4.43;3.28;;;1.80;99.90;;;;;;5071684;28;20222;-61
2024/01/06 03:50:27;;;;;;;3.78;3.47;;;1.80;99.90;;;;;;5071853;28;20208;-61
2024/01/06 03:52:54;;;;;;;7.05;3.75;;;1.80;99.90;;;;;;5071799;28;20300;-61
2024/01/06 03:55:21;;;;;;;2.65;2.45;;;1.80;99.90;;;;;;5070995;28;20235;-61
2024/01/06 03:57:48;;;;;;;3.60;3.28;;;1.90;99.90;;;;;;5071579;28;20619;-61
2024/01/06 04:00:15;;;;;;;3.00;2.80;;;1.80;99.90;;;;;;5071487;28;20209;-62
2024/01/06 04:02:42;;;;;;;3.58;3.30;;;1.90;99.90;;;;;;5071822;28;20308;-61
2024/01/06 04:05:10;;;;;;;4.57;3.60;;;1.90;99.90;;;;;;5072181;28;20206;-61
2024/01/06 04:07:37;;;;;;;3.97;3.05;;;1.90;99.90;;;;;;5071586;28;20268;-61
2024/01/06 04:10:05;;;;;;;3.55;3.08;;;1.80;99.90;;;;;;5071733;28;20201;-62
2024/01/06 04:12:31;;;;;;;4.90;3.10;;;1.80;99.90;;;;;;5071771;28;20201;-61
2024/01/06 04:14:58;;;;;;;4.57;4.18;;;1.80;99.90;;;;;;5071619;28;20602;-61
2024/01/06 04:17:26;;;;;;;4.13;3.75;;;1.80;99.90;;;;;;5071587;28;20225;-61
2024/01/06 04:19:53;;;;;;;3.55;3.25;;;1.80;99.90;;;;;;5071656;28;20299;-61
2024/01/06 04:22:21;;;;;;;9.48;5.28;;;1.70;99.90;;;;;;5070564;28;20206;-62
2024/01/06 04:24:48;;;;;;;3.60;3.25;;;1.70;99.90;;;;;;5071303;28;20292;-62
2024/01/06 04:27:15;;;;;;;4.55;4.13;;;1.70;99.90;;;;;;5071354;28;20235;-62
2024/01/06 04:29:42;;;;;;;4.70;4.30;;;1.70;99.90;;;;;;5071493;28;20205;-61
2024/01/06 04:32:09;;;;;;;5.18;4.55;;;1.70;99.90;;;;;;5071777;28;20201;-62
2024/01/06 04:34:35;;;;;;;5.55;4.90;;;1.70;99.90;;;;;;5071468;28;20230;-60
2024/01/06 04:37:02;;;;;;;5.43;4.93;;;1.70;99.90;;;;;;5071480;28;20676;-61
2024/01/06 04:39:30;;;;;;;5.40;5.00;;;1.70;99.90;;;;;;5071148;28;20209;-61
2024/01/06 04:41:57;;;;;;;8.30;4.88;;;1.80;99.90;;;;;;5071591;28;20205;-61
2024/01/06 04:44:25;;;;;;;5.43;4.93;;;1.80;99.90;;;;;;5071504;28;20206;-62
2024/01/06 04:46:52;;;;;;;5.63;4.13;;;1.90;99.90;;;;;;5071437;28;20216;-60
2024/01/06 04:49:18;;;;;;;4.63;4.22;;;1.90;99.90;;;;;;5071130;28;20320;-62
2024/01/06 04:51:45;;;;;;;4.28;3.97;;;1.90;99.90;;;;;;5071253;28;20305;-61
2024/01/06 04:54:12;;;;;;;3.90;3.60;;;1.90;99.90;;;;;;5071227;28;20228;-61
2024/01/06 04:56:40;;;;;;;5.72;5.28;;;2.00;99.90;;;;;;5071208;28;20244;-62
2024/01/06 04:59:07;;;;;;;4.20;3.10;;;2.00;99.90;;;;;;5070882;28;20639;-61
2024/01/06 05:01:34;;;;;;;3.78;3.40;;;2.00;99.90;;;;;;5071434;28;20202;-61
2024/01/06 05:04:01;;;;;;;5.60;5.10;;;2.10;99.90;;;;;;5071335;28;20202;-62
2024/01/06 05:06:28;;;;;;;5.85;4.65;;;2.10;99.90;;;;;;5071089;28;20213;-61
2024/01/06 05:08:55;;;;;;;4.32;3.90;;;2.10;99.90;;;;;;5070986;28;20226;-61
2024/01/06 05:11:22;;;;;;;4.90;4.40;;;2.10;99.90;;;;;;5071100;28;20755;-62
2024/01/06 05:13:50;;;;;;;3.75;3.55;;;2.10;99.90;;;;;;5071095;28;20216;-61
2024/01/06 05:16:17;;;;;;;3.75;3.35;;;2.10;99.90;;;;;;5071331;28;20680;-62
2024/01/06 05:18:43;;;;;;;4.20;3.90;;;2.00;99.90;;;;;;5071018;28;20236;-62
2024/01/06 05:21:10;;;;;;;6.43;4.70;;;2.00;99.90;;;;;;5070787;28;20208;-60
2024/01/06 05:23:37;;;;;;;4.30;3.90;;;2.00;99.90;;;;;;5071173;28;20216;-61
2024/01/06 05:26:04;;;;;;;4.63;3.47;;;2.00;99.90;;;;;;5071393;28;20686;-62
2024/01/06 05:28:31;;;;;;;5.05;4.55;;;2.00;99.90;;;;;;5071033;28;20699;-61
2024/01/06 05:30:59;;;;;;;4.72;4.15;;;2.00;99.90;;;;;;5070738;28;20297;-60
2024/01/06 05:33:26;;;;;;;5.25;3.40;;;2.00;99.90;;;;;;5070915;28;20291;-61
2024/01/06 05:35:53;;;;;;;4.75;3.40;;;2.00;99.90;;;;;;5070771;28;20221;-61
2024/01/06 05:38:19;;;;;;;6.18;3.65;;;2.00;99.90;;;;;;5073618;28;20598;-61
2024/01/06 05:40:46;;;;;;;3.65;3.35;;;2.00;99.90;;;;;;5074434;28;20208;-61
2024/01/06 05:43:13;;;;;;;3.63;3.22;;;2.00;99.90;;;;;;5074577;28;20205;-61
2024/01/06 05:45:41;;;;;;;4.82;4.38;;;2.00;99.90;;;;;;5074488;28;20208;-61
2024/01/06 05:48:11;;;;;;;5.65;3.42;;;2.10;99.90;;;;;;5074353;28;20232;-61
2024/01/06 05:50:39;;;;;;;6.15;4.05;;;2.10;99.90;;;;;;5074180;28;20244;-61
2024/01/06 05:53:05;;;;;;;6.25;4.95;;;2.10;99.90;;;;;;5074236;28;20297;-60
2024/01/06 05:55:32;;;;;;;3.53;2.67;;;2.10;99.90;;;;;;5074360;28;20236;-62
2024/01/06 05:57:59;;;;;;;6.47;4.00;;;2.10;99.90;;;;;;5073991;28;20240;-61
2024/01/06 06:00:26;;;;;;;10.70;3.55;;;2.10;99.90;;;;;;5074020;28;20202;-62
2024/01/06 06:02:53;;;;;;;3.50;3.30;;;2.20;99.90;;;;;;5074488;28;20205;-61
2024/01/06 06:05:21;;;;;;;5.55;2.95;;;2.10;99.90;;;;;;5074493;28;20213;-62
2024/01/06 06:07:48;;;;;;;5.25;4.07;;;2.20;99.90;;;;;;5074158;28;20225;-62
2024/01/06 06:10:15;;;;;;;4.28;3.97;;;2.20;99.90;;;;;;5074102;28;20217;-62
2024/01/06 06:12:43;;;;;;;6.43;3.88;;;2.20;99.90;;;;;;5074027;28;20205;-62
2024/01/06 06:15:10;;;;;;;4.15;3.70;;;2.20;99.90;;;;;;5073804;28;20317;-61
2024/01/06 06:17:37;;;;;;;4.43;3.88;;;2.30;99.90;;;;;;5073646;28;20228;-62
2024/01/06 06:20:06;;;;;;;4.95;4.07;;;2.30;99.90;;;;;;5073730;28;20216;-61
2024/01/06 06:22:34;;;;;;;4.78;3.80;;;2.30;99.90;;;;;;5073953;28;20288;-62
2024/01/06 06:25:01;;;;;;;3.53;3.22;;;2.30;99.90;;;;;;5073750;28;20204;-61
2024/01/06 06:27:28;;;;;;;3.40;2.80;;;2.40;99.90;;;;;;5073673;28;20241;-62
2024/01/06 06:29:56;;;;;;;4.60;4.05;;;2.40;99.90;;;;;;5073490;28;20210;-62
2024/01/06 06:32:24;;;;;;;4.03;3.78;;;2.40;99.90;;;;;;5073402;28;20214;-62
2024/01/06 06:34:51;;;;;;;4.15;3.75;;;2.40;99.90;;;;;;5073519;28;20277;-62
2024/01/06 06:37:18;;;;;;;3.83;3.53;;;2.40;99.90;;;;;;5073427;28;20224;-61
2024/01/06 06:39:46;;;;;;;3.97;3.67;;;2.50;99.90;;;;;;5073116;28;20685;-61
2024/01/06 06:42:13;;;;;;;4.43;3.95;;;2.50;99.90;;;;;;5073408;28;20205;-61
2024/01/06 06:44:40;;;;;;;4.22;3.92;;;2.50;99.90;;;;;;5073337;28;20206;-61
2024/01/06 06:47:07;;;;;;;6.07;3.63;;;2.50;99.90;;;;;;5073305;28;20210;-61
2024/01/06 06:49:34;;;;;;;4.35;3.83;;;2.60;99.90;;;;;;5073088;28;20210;-61
2024/01/06 06:52:03;;;;;;;8.35;4.38;;;2.60;99.90;;;;;;5073079;28;20688;-62
2024/01/06 06:54:30;;;;;;;4.35;3.95;;;2.60;99.90;;;;;;5073107;28;20210;-60
2024/01/06 06:56:58;;;;;;;5.25;4.75;;;2.60;99.90;;;;;;5073252;28;20292;-61
2024/01/06 06:59:25;;;;;;;6.93;4.07;;;2.60;99.90;;;;;;5072506;28;20241;-62
2024/01/06 07:01:52;;;;;;;4.97;4.47;;;2.60;99.90;;;;;;5073131;28;20359;-62
2024/01/06 07:04:18;;;;;;;7.68;5.10;;;2.60;99.90;;;;;;5072814;28;20216;-62
2024/01/06 07:06:45;;;;;;;5.35;4.13;;;2.70;99.90;;;;;;5073003;28;20212;-62
2024/01/06 07:09:12;;;;;;;9.02;4.18;;;2.70;99.90;;;;;;5072389;28;20228;-62
2024/01/06 07:11:39;;;;;;;4.03;3.67;;;2.70;99.90;;;;;;5072748;28;20566;-62
2024/01/06 07:14:07;;;;;;;4.85;4.35;;;2.70;99.90;;;;;;5072610;28;20213;-62
2024/01/06 07:16:34;;;;;;;6.90;5.13;;;2.70;99.90;;;;;;5072747;28;20313;-62
2024/01/06 07:19:01;;;;;;;18.90;11.93;;;2.80;99.90;;;;;;5072327;28;20240;-61
2024/01/06 07:21:27;;;;;;;16.13;12.52;;;2.80;99.90;;;;;;5072794;28;20292;-60
2024/01/06 07:23:54;;;;;;;30.17;16.67;;;2.80;99.90;;;;;;5072529;28;20216;-62
2024/01/06 07:26:21;;;;;;;9.95;6.95;;;2.80;99.90;;;;;;5072029;28;20582;-61
2024/01/06 07:28:48;;;;;;;10.20;6.43;;;2.80;99.90;;;;;;5072580;28;20235;-60
2024/01/06 07:31:17;;;;;;;10.15;6.03;;;2.80;99.90;;;;;;5072278;28;20214;-63
2024/01/06 07:33:44;;;;;;;6.28;5.10;;;2.90;99.90;;;;;;5072277;28;20205;-63
2024/01/06 07:36:11;;;;;;;7.55;5.03;;;2.80;99.90;;;;;;5069330;28;20255;-63
2024/01/06 07:38:37;;;;;;;6.20;4.63;;;2.90;99.90;;;;;;5068994;28;20579;-63
2024/01/06 07:41:04;;;;;;;7.55;6.85;;;2.90;99.90;;;;;;5071921;28;20202;-62
2024/01/06 07:43:31;;;;;;;10.25;9.15;;;2.90;99.90;;;;;;5072349;28;20205;-63
2024/01/06 07:45:58;;;;;;;5.32;4.13;;;2.90;99.90;;;;;;5072186;28;20672;-63
2024/01/06 07:48:27;;;;;;;9.02;3.90;;;2.90;99.90;;;;;;5071948;28;20230;-63
2024/01/06 07:50:54;;;;;;;4.18;3.88;;;3.00;99.90;;;;;;5071958;28;20202;-62
2024/01/06 07:53:21;;;;;;;4.45;4.07;;;3.00;99.90;;;;;;5072075;28;20251;-63
2024/01/06 07:55:48;;;;;;;7.57;5.20;;;3.00;99.90;;;;;;5071820;28;20229;-62
2024/01/06 07:58:15;;;;;;;5.38;4.90;;;3.00;99.90;;;;;;5071643;28;20320;-63
2024/01/06 08:00:42;;;;;;;7.97;7.28;;;3.00;99.90;;;;;;5071397;28;20201;-63
2024/01/06 08:03:11;;;;;;;10.68;9.57;;;3.10;99.90;;;;;;5071975;28;20205;-62
2024/01/06 08:05:39;;;;;;;13.32;11.95;;;3.10;99.90;;;;;;5071747;28;20692;-62
2024/01/06 08:08:06;;;;;;;6.80;5.57;;;3.10;99.90;;;;;;5071614;28;20313;-63
2024/01/06 08:10:33;;;;;;;6.22;4.53;;;3.10;99.90;;;;;;5071511;28;20214;-62
2024/01/06 08:13:00;;;;;;;5.93;5.18;;;3.10;99.90;;;;;;5071947;28;20297;-62
2024/01/06 08:15:27;;;;;;;5.82;5.32;;;3.20;99.90;;;;;;5071685;28;20612;-62
2024/01/06 08:17:53;;;;;;;11.90;5.75;;;3.20;99.90;;;;;;5071790;28;20227;-61
2024/01/06 08:20:20;;;;;;;8.77;7.93;;;3.20;99.90;;;;;;5071964;28;20638;-61
2024/01/06 08:22:48;;;;;;;11.05;9.95;;;3.20;99.90;;;;;;5072109;28;20212;-62
2024/01/06 08:25:17;;;;;;;10.85;8.07;;;3.30;99.90;;;;;;5071814;28;20201;-62
2024/01/06 08:27:44;;;;;;;7.53;6.18;;;3.30;99.90;;;;;;5070705;28;20299;-63
2024/01/06 08:30:11;;;;;;;8.52;6.85;;;3.40;99.90;;;;;;5071196;28;20202;-63
2024/01/06 08:32:38;;;;;;;7.18;6.57;;;3.40;99.90;;;;;;5071477;28;20240;-63
2024/01/06 08:35:06;;;;;;;6.75;5.97;;;3.40;99.90;;;;;;5071339;28;20307;-63
2024/01/06 08:37:32;;;;;;;9.60;8.60;;;3.50;99.90;;;;;;5071562;28;20225;-62
2024/01/06 08:40:01;;;;;;;9.25;7.55;;;3.50;99.90;;;;;;5071535;28;20316;-63
2024/01/06 08:42:27;;;;;;;10.40;9.18;;;3.50;99.90;;;;;;5071622;28;20213;-62
2024/01/06 08:44:54;;;;;;;9.40;8.45;;;3.50;99.90;;;;;;5071291;28;20209;-62
2024/01/06 08:47:21;;;;;;;6.15;5.65;;;3.60;99.90;;;;;;5071204;28;20292;-63
2024/01/06 08:49:48;;;;;;;6.50;5.95;;;3.60;99.90;;;;;;5065387;28;20296;-63
2024/01/06 08:52:15;;;;;;;7.45;6.25;;;3.70;99.90;;;;;;5064179;28;20284;-63
2024/01/06 08:54:41;;;;;;;7.20;4.63;;;3.70;99.90;;;;;;5067250;28;20296;-62
2024/01/06 08:57:10;;;;;;;4.80;4.40;;;3.70;99.90;;;;;;5057972;28;20592;-62
2024/01/06 08:59:36;;;;;;;7.32;6.63;;;3.70;99.90;;;;;;5067306;28;20688;-63
2024/01/06 09:02:04;;;;;;;11.90;7.35;;;3.70;99.90;;;;;;5061174;28;20727;-64
2024/01/06 09:04:30;;;;;;;10.23;6.88;;;3.80;99.90;;;;;;5067720;28;20229;-63
2024/01/06 09:06:57;;;;;;;11.55;8.30;;;3.80;99.90;;;;;;5065907;28;20203;-64
2024/01/06 09:09:24;;;;;;;9.00;7.72;;;3.80;99.90;;;;;;5064697;28;20584;-63
2024/01/06 09:11:51;;;;;;;15.13;7.50;;;3.90;99.90;;;;;;5061357;28;20211;-63
2024/01/06 09:14:19;;;;;;;11.30;7.75;;;3.90;99.90;;;;;;5070804;28;20297;-63
2024/01/06 09:16:46;;;;;;;11.93;8.38;;;3.90;99.90;;;;;;5066224;28;20221;-64
2024/01/06 09:19:13;;;;;;;9.93;7.80;;;4.00;99.90;;;;;;5073593;28;20251;-63
2024/01/06 09:21:40;;;;;;;13.18;8.02;;;4.10;99.90;;;;;;5074303;28;20208;-63
2024/01/06 09:24:07;;;;;;;15.90;13.02;;;4.10;99.90;;;;;;5074012;28;20210;-64
2024/01/06 09:26:34;;;;;;;23.63;16.10;;;4.10;99.90;;;;;;5073874;28;20301;-63
2024/01/06 09:29:01;;;;;;;28.30;17.90;;;4.10;99.90;;;;;;5069522;28;20226;-64
2024/01/06 09:31:30;;;;;;;18.23;10.60;;;4.20;99.90;;;;;;5068802;28;20210;-63
2024/01/06 09:33:56;;;;;;;12.27;8.57;;;4.30;99.90;;;;;;5073843;28;20208;-63
2024/01/06 09:36:23;;;;;;;9.27;8.38;;;4.30;99.90;;;;;;5074085;28;20225;-64
2024/01/06 09:38:50;;;;;;;7.28;6.18;;;4.30;99.90;;;;;;5073943;28;20228;-63
2024/01/06 09:41:17;;;;;;;7.05;6.53;;;4.40;99.90;;;;;;5071266;28;20229;-63
2024/01/06 09:43:44;;;;;;;9.05;7.50;;;4.40;99.90;;;;;;5060833;28;20245;-63
2024/01/06 09:46:16;;;;;;;10.77;8.30;;;4.40;99.90;;;;;;5072298;28;20289;-63
2024/01/06 09:48:46;;;;;;;10.45;9.38;;;4.40;99.90;;;;;;5065900;28;20226;-63
2024/01/06 09:51:13;;;;;;;8.95;8.10;;;4.50;99.90;;;;;;5073007;28;20202;-63
2024/01/06 09:53:48;;;;;;;7.25;6.72;;;4.50;99.90;;;;;;5073442;28;20665;-63
2024/01/06 09:56:17;;;;;;;8.13;6.43;;;4.60;99.90;;;;;;5072136;28;20221;-64
2024/01/06 09:58:45;;;;;;;10.57;7.60;;;4.60;99.90;;;;;;5056008;28;20242;-63
2024/01/06 10:01:14;;;;;;;9.30;8.27;;;4.60;99.90;;;;;;5070510;28;20202;-63
2024/01/06 10:03:41;;;;;;;6.53;5.50;;;4.70;99.90;;;;;;5060868;28;20210;-64
2024/01/06 10:06:09;;;;;;;6.05;5.45;;;4.80;99.90;;;;;;5069530;28;20309;-63
2024/01/06 10:08:36;;;;;;;8.20;7.10;;;4.80;99.90;;;;;;5070647;28;20225;-63
2024/01/06 10:11:04;;;;;;;6.43;5.65;;;4.90;99.90;;;;;;5066512;28;20632;-63
2024/01/06 10:13:31;;;;;;;8.48;5.88;;;4.90;99.90;;;;;;5069102;28;20224;-63
2024/01/06 10:15:58;;;;;;;6.28;5.57;;;5.00;99.90;;;;;;5067041;28;20225;-64
2024/01/06 10:18:29;;;;;;;6.30;5.80;;;5.00;99.90;;;;;;5070160;28;20218;-63
2024/01/06 10:20:56;;;;;;;8.15;7.55;;;5.10;99.90;;;;;;5061703;28;20233;-63
2024/01/06 10:23:25;;;;;;;8.30;7.50;;;5.10;99.90;;;;;;5062049;28;20288;-63
2024/01/06 10:25:53;;;;;;;13.18;8.80;;;5.10;99.90;;;;;;5065645;28;20205;-63
2024/01/06 10:28:22;;;;;;;9.98;9.02;;;5.20;99.90;;;;;;5068736;28;20229;-63
2024/01/06 10:30:50;;;;;;;8.48;7.68;;;5.30;99.90;;;;;;5072850;28;20205;-63
2024/01/06 10:33:17;;;;;;;7.88;7.28;;;5.30;99.90;;;;;;5072833;28;20206;-63
2024/01/06 10:35:44;;;;;;;6.50;5.88;;;5.40;99.90;;;;;;5060730;28;20231;-63
2024/01/06 10:38:12;;;;;;;8.73;7.90;;;5.40;99.90;;;;;;5069912;28;20222;-63
2024/01/06 10:40:41;;;;;;;8.70;7.90;;;5.50;99.90;;;;;;5072857;28;20206;-63
2024/01/06 10:43:10;;;;;;;10.13;8.77;;;5.50;99.90;;;;;;5062375;28;20213;-63
2024/01/06 10:45:37;;;;;;;10.98;8.90;;;5.60;99.90;;;;;;5065714;28;20202;-63
2024/01/06 10:48:07;;;;;;;10.05;9.07;;;5.70;99.90;;;;;;5063571;28;20232;-62
2024/01/06 10:50:34;;;;;;;9.00;8.10;;;5.80;99.90;;;;;;5066966;28;20244;-63
2024/01/06 10:53:03;;;;;;;11.32;10.20;;;5.90;99.90;;;;;;5073089;28;20205;-63
2024/01/06 10:55:30;;;;;;;10.15;9.25;;;6.00;99.90;;;;;;5072994;28;20205;-63
2024/01/06 10:58:00;;;;;;;12.35;10.05;;;6.10;99.90;;;;;;5072752;28;20238;-63
2024/01/06 11:00:27;;;;;;;12.75;8.60;;;6.20;99.90;;;;;;5072668;28;20209;-63
2024/01/06 11:02:56;;;;;;;10.10;8.20;;;6.30;99.90;;;;;;5072897;28;20210;-63
2024/01/06 11:05:23;;;;;;;7.93;6.05;;;6.30;99.90;;;;;;5071565;28;20289;-63
2024/01/06 11:07:52;;;;;;;8.82;7.75;;;6.40;99.90;;;;;;5068711;28;20222;-63
2024/01/06 11:10:20;;;;;;;7.00;5.93;;;6.40;99.90;;;;;;5062859;28;20297;-63
2024/01/06 11:13:06;;;;;;;6.40;5.90;;;6.40;99.90;;;;;;5072367;28;20202;-62
2024/01/06 11:15:46;;;;;;;7.30;6.70;;;6.50;99.90;;;;;;5071351;28;20296;-63
2024/01/06 11:18:33;;;;;;;6.80;6.20;;;6.50;99.90;;;;;;5071913;28;20782;-63
2024/01/06 11:21:24;;;;;;;5.95;5.35;;;6.60;99.90;;;;;;5072324;28;20292;-63
2024/01/06 11:24:22;;;;;;;7.78;6.97;;;6.70;99.90;;;;;;5055667;28;20599;-63
2024/01/06 11:26:54;;;;;;;6.38;5.68;;;6.70;99.90;;;;;;5006202;28;20210;-63
2024/01/06 11:29:21;;;;;;;6.95;5.40;;;6.80;99.90;;;;;;5059248;28;20222;-63
2024/01/06 11:32:28;;;;;;;8.10;7.32;;;6.90;99.90;;;;;;5072267;28;20212;-63
2024/01/06 11:34:58;;;;;;;6.20;5.65;;;7.00;99.90;;;;;;5071399;28;20258;-63
2024/01/06 11:37:26;;;;;;;8.07;7.32;;;7.20;99.90;;;;;;5072034;28;20230;-63
2024/01/06 11:39:54;;;;;;;9.48;6.10;;;7.30;99.90;;;;;;5059085;28;20323;-64
2024/01/06 11:42:21;;;;;;;7.47;6.78;;;7.40;99.90;;;;;;5064577;28;20249;-64
2024/01/06 11:44:51;;;;;;;6.35;5.20;;;7.40;99.90;;;;;;5059170;28;20213;-63
2024/01/06 11:47:23;;;;;;;8.00;7.30;;;7.50;99.90;;;;;;5071117;28;20208;-63
2024/01/06 11:49:55;;;;;;;7.20;6.40;;;7.50;99.90;;;;;;5070521;28;20198;-62
2024/01/06 11:52:22;;;;;;;5.55;4.75;;;7.60;99.90;;;;;;5063489;28;20198;-63
2024/01/06 11:54:50;;;;;;;5.20;4.78;;;7.60;99.90;;;;;;5069088;28;20224;-63
2024/01/06 11:57:16;;;;;;;6.68;5.20;;;7.50;99.90;;;;;;5071220;28;20252;-63
2024/01/06 11:59:43;;;;;;;5.57;5.05;;;7.50;99.90;;;;;;5070379;28;20212;-63
2024/01/06 12:02:12;;;;;;;6.07;4.88;;;7.50;99.90;;;;;;5070454;28;20646;-63
2024/01/06 12:04:40;;;;;;;5.13;4.70;;;7.40;99.90;;;;;;5071642;28;20201;-63
2024/01/06 12:07:09;;;;;;;8.00;5.63;;;7.40;99.90;;;;;;5071361;28;20207;-63
2024/01/06 12:09:36;;;;;;;6.30;5.70;;;7.50;99.90;;;;;;5068780;28;20216;-62
2024/01/06 12:12:05;;;;;;;6.75;6.10;;;7.50;99.90;;;;;;5070776;28;20857;-62
2024/01/06 12:14:32;;;;;;;7.78;7.05;;;7.50;99.90;;;;;;5070529;28;20217;-61
2024/01/06 12:17:02;;;;;;;6.82;6.18;;;7.60;99.90;;;;;;5070969;28;20955;-63
2024/01/06 12:19:29;;;;;;;6.35;5.78;;;7.60;99.90;;;;;;5070805;28;20719;-62
2024/01/06 12:21:56;;;;;;;11.95;10.98;;;7.80;99.90;;;;;;5071029;28;20206;-62
2024/01/06 12:24:25;;;;;;;6.68;6.00;;;8.10;99.90;;;;;;5071022;28;20212;-63
2024/01/06 12:26:52;;;;;;;9.77;5.50;;;8.30;99.90;;;;;;5070804;28;20205;-63
2024/01/06 12:29:19;;;;;;;5.20;4.70;;;8.60;99.90;;;;;;5070601;28;20233;-62
2024/01/06 12:31:47;;;;;;;5.83;4.67;;;8.90;99.90;;;;;;5066602;28;20522;-62
2024/01/06 12:34:13;;;;;;;5.00;4.60;;;9.20;99.90;;;;;;5063377;28;20805;-63
2024/01/06 12:36:43;;;;;;;6.27;4.70;;;9.50;99.90;;;;;;5060104;28;20491;-62
2024/01/06 12:39:13;;;;;;;7.20;5.70;;;9.60;99.90;;;;;;5060337;28;21199;-61
2024/01/06 12:41:42;;;;;;;5.73;5.13;;;9.50;99.90;;;;;;5070184;28;20447;-62
2024/01/06 12:44:09;;;;;;;6.33;5.90;;;9.40;99.90;;;;;;5064411;28;20777;-63
2024/01/06 12:46:36;;;;;;;5.57;4.77;;;9.40;99.90;;;;;;5057158;28;20470;-62
2024/01/06 12:49:03;;;;;;;5.22;4.90;;;9.30;99.90;;;;;;5074023;28;20460;-63
2024/01/06 12:51:30;;;;;;;4.00;3.70;;;9.20;99.90;;;;;;5075472;28;20865;-62
2024/01/06 12:53:57;;;;;;;5.63;3.90;;;9.00;99.90;;;;;;5075902;28;20452;-61
2024/01/06 12:56:24;;;;;;;5.40;4.90;;;8.90;99.90;;;;;;5075527;28;20487;-63
2024/01/06 12:58:53;;;;;;;5.65;5.15;;;8.90;99.90;;;;;;5066021;22;20869;-62